Pagina principale
METAR-TAF:

METAR-TAF

Aeroporti :

Aeroporto di Garoua

Garoua, Camerun

latitudine: 09-20N, longitudine: 013-23E, altezza: 242 m

Osservazione

Il bollettino è stato emesso 1 ora e 6 minuti fa, alle 10:00 UTC
Vento 6 kt da est
Temperature 30°C
Umidità 31%
Pressione 1013 hPa
Visibilità 10 km o più
nessuna nube inferiore a 1500 m e nessun cumulonembo

METAR: FKKR 111000Z 08006KT CAVOK 30/11 Q1013 NOSIG

Ora: 12:06 (11:06 UTC)

Previsione

Il bollettino è stato emesso 6 ore e 6 minuti fa, alle 05:00 UTC
Previsione valida dal 11 alle 06 UTC al 11 alle 18 UTC
Vento 7 kt da nord
Visibilità 10 km o più
nessuna nube inferiore a 1500 m e nessun cumulonembo

TAF: FKKR 110500Z 1106/1118 35007KT CAVOK

Osservazioni e previsioni meteorologiche di più di 4000 aeroporti (messaggi METAR e TAF).

Le stazioni disponibili sono rappresentate dai dischi gialli e rossi sulla carta.

Puntare il mouse per vedere il nome della stazione.

Clicca sopra per visualizzare le osservazioni e previsioni meteorologiche.

Per cambiare la mappa : fare clic sui pulsanti verdi con una croce nera per ingrandire, il pulsante verde con un trattino per diminuire, o sulla freccia verde per le mappe adiacenti.


METAR-TAF: